sensor_id;sensor_type;location;lat;lon;timestamp;temperature;humidity
74923;HTU21D;64715;44.760;37.678;2023-05-23T00:00:48;15.38;81.44
74923;HTU21D;64715;44.760;37.678;2023-05-23T00:01:51;15.37;81.49
74923;HTU21D;64715;44.760;37.678;2023-05-23T00:02:54;15.36;81.49
74923;HTU21D;64715;44.760;37.678;2023-05-23T00:03:55;15.34;81.56
74923;HTU21D;64715;44.760;37.678;2023-05-23T00:04:56;15.34;81.61
74923;HTU21D;64715;44.760;37.678;2023-05-23T00:06:00;15.34;81.62
74923;HTU21D;64715;44.760;37.678;2023-05-23T00:07:02;15.31;81.85
74923;HTU21D;64715;44.760;37.678;2023-05-23T00:08:03;15.31;81.84
74923;HTU21D;64715;44.760;37.678;2023-05-23T00:09:04;15.28;81.65
74923;HTU21D;64715;44.760;37.678;2023-05-23T00:10:05;15.29;81.78
74923;HTU21D;64715;44.760;37.678;2023-05-23T00:11:06;15.26;81.65
74923;HTU21D;64715;44.760;37.678;2023-05-23T00:12:07;15.25;81.72
74923;HTU21D;64715;44.760;37.678;2023-05-23T00:13:08;15.24;81.51
74923;HTU21D;64715;44.760;37.678;2023-05-23T00:14:13;15.23;81.36
74923;HTU21D;64715;44.760;37.678;2023-05-23T00:15:14;15.21;81.75
74923;HTU21D;64715;44.760;37.678;2023-05-23T00:16:15;15.19;81.79
74923;HTU21D;64715;44.760;37.678;2023-05-23T00:17:18;15.17;81.52
74923;HTU21D;64715;44.760;37.678;2023-05-23T00:18:19;15.15;81.52
74923;HTU21D;64715;44.760;37.678;2023-05-23T00:19:20;15.14;81.34
74923;HTU21D;64715;44.760;37.678;2023-05-23T00:20:21;15.13;81.59
74923;HTU21D;64715;44.760;37.678;2023-05-23T00:21:22;15.12;81.79
74923;HTU21D;64715;44.760;37.678;2023-05-23T00:22:23;15.10;81.62
74923;HTU21D;64715;44.760;37.678;2023-05-23T00:23:25;15.11;81.91
74923;HTU21D;64715;44.760;37.678;2023-05-23T00:24:25;15.11;81.60
74923;HTU21D;64715;44.760;37.678;2023-05-23T00:25:27;15.09;81.80
74923;HTU21D;64715;44.760;37.678;2023-05-23T00:26:33;15.08;81.97
74923;HTU21D;64715;44.760;37.678;2023-05-23T00:27:35;15.06;82.02
74923;HTU21D;64715;44.760;37.678;2023-05-23T00:28:37;15.03;81.55
74923;HTU21D;64715;44.760;37.678;2023-05-23T00:29:38;15.06;81.98
74923;HTU21D;64715;44.760;37.678;2023-05-23T00:30:39;15.02;81.83
74923;HTU21D;64715;44.760;37.678;2023-05-23T00:31:41;15.01;82.03
74923;HTU21D;64715;44.760;37.678;2023-05-23T00:32:46;15.02;81.94
74923;HTU21D;64715;44.760;37.678;2023-05-23T00:33:46;15.01;81.89
74923;HTU21D;64715;44.760;37.678;2023-05-23T00:34:47;15.02;82.19
74923;HTU21D;64715;44.760;37.678;2023-05-23T00:35:49;15.01;82.16
74923;HTU21D;64715;44.760;37.678;2023-05-23T00:36:50;15.01;82.01
74923;HTU21D;64715;44.760;37.678;2023-05-23T00:37:51;15.00;82.17
74923;HTU21D;64715;44.760;37.678;2023-05-23T00:38:53;15.00;82.05
74923;HTU21D;64715;44.760;37.678;2023-05-23T00:39:55;15.00;81.94
74923;HTU21D;64715;44.760;37.678;2023-05-23T00:40:56;15.00;82.21
74923;HTU21D;64715;44.760;37.678;2023-05-23T00:41:57;15.00;82.21
74923;HTU21D;64715;44.760;37.678;2023-05-23T00:43:00;14.98;82.16
74923;HTU21D;64715;44.760;37.678;2023-05-23T00:44:01;14.96;82.29
74923;HTU21D;64715;44.760;37.678;2023-05-23T00:45:02;14.97;82.08
74923;HTU21D;64715;44.760;37.678;2023-05-23T00:46:04;14.97;82.10
74923;HTU21D;64715;44.760;37.678;2023-05-23T00:47:06;14.96;82.18
74923;HTU21D;64715;44.760;37.678;2023-05-23T00:48:08;14.96;82.18
74923;HTU21D;64715;44.760;37.678;2023-05-23T00:49:11;14.96;82.14
74923;HTU21D;64715;44.760;37.678;2023-05-23T00:50:14;14.93;82.12
74923;HTU21D;64715;44.760;37.678;2023-05-23T00:51:16;14.93;82.13
74923;HTU21D;64715;44.760;37.678;2023-05-23T00:52:17;14.95;82.11
74923;HTU21D;64715;44.760;37.678;2023-05-23T00:53:18;14.92;81.99
74923;HTU21D;64715;44.760;37.678;2023-05-23T00:54:23;14.91;81.96
74923;HTU21D;64715;44.760;37.678;2023-05-23T00:55:24;14.88;81.84
74923;HTU21D;64715;44.760;37.678;2023-05-23T00:56:27;14.87;82.31
74923;HTU21D;64715;44.760;37.678;2023-05-23T00:57:29;14.86;82.01
74923;HTU21D;64715;44.760;37.678;2023-05-23T00:58:30;14.86;82.19
74923;HTU21D;64715;44.760;37.678;2023-05-23T00:59:32;14.87;82.24
74923;HTU21D;64715;44.760;37.678;2023-05-23T01:00:37;14.84;82.36
74923;HTU21D;64715;44.760;37.678;2023-05-23T01:01:39;14.83;82.49
74923;HTU21D;64715;44.760;37.678;2023-05-23T01:02:45;14.84;82.40
74923;HTU21D;64715;44.760;37.678;2023-05-23T01:03:47;14.82;82.44
74923;HTU21D;64715;44.760;37.678;2023-05-23T01:04:49;14.85;82.37
74923;HTU21D;64715;44.760;37.678;2023-05-23T01:05:54;14.83;82.31
74923;HTU21D;64715;44.760;37.678;2023-05-23T01:06:56;14.82;82.42
74923;HTU21D;64715;44.760;37.678;2023-05-23T01:07:57;14.83;82.17
74923;HTU21D;64715;44.760;37.678;2023-05-23T01:08:58;14.83;82.50
74923;HTU21D;64715;44.760;37.678;2023-05-23T01:10:03;14.82;82.78
74923;HTU21D;64715;44.760;37.678;2023-05-23T01:11:11;14.82;82.55
74923;HTU21D;64715;44.760;37.678;2023-05-23T01:12:34;14.81;82.55
74923;HTU21D;64715;44.760;37.678;2023-05-23T01:14:04;14.80;82.36
74923;HTU21D;64715;44.760;37.678;2023-05-23T01:15:09;14.80;82.62
74923;HTU21D;64715;44.760;37.678;2023-05-23T01:16:16;14.77;82.56
74923;HTU21D;64715;44.760;37.678;2023-05-23T01:17:25;14.79;82.57
74923;HTU21D;64715;44.760;37.678;2023-05-23T01:18:34;14.81;82.70
74923;HTU21D;64715;44.760;37.678;2023-05-23T01:20:01;14.80;82.60
74923;HTU21D;64715;44.760;37.678;2023-05-23T01:21:16;14.80;82.75
74923;HTU21D;64715;44.760;37.678;2023-05-23T01:22:28;14.79;82.75
74923;HTU21D;64715;44.760;37.678;2023-05-23T01:26:00;14.75;82.55
74923;HTU21D;64715;44.760;37.678;2023-05-23T01:27:22;14.77;82.68
74923;HTU21D;64715;44.760;37.678;2023-05-23T01:28:32;14.78;82.68
74923;HTU21D;64715;44.760;37.678;2023-05-23T01:29:38;14.80;83.07
74923;HTU21D;64715;44.760;37.678;2023-05-23T01:30:43;14.83;83.04
74923;HTU21D;64715;44.760;37.678;2023-05-23T01:31:48;14.84;83.13
74923;HTU21D;64715;44.760;37.678;2023-05-23T01:32:53;14.87;83.18
74923;HTU21D;64715;44.760;37.678;2023-05-23T01:33:55;14.89;83.20
74923;HTU21D;64715;44.760;37.678;2023-05-23T01:34:58;14.92;83.43
74923;HTU21D;64715;44.760;37.678;2023-05-23T01:36:01;14.94;83.49
74923;HTU21D;64715;44.760;37.678;2023-05-23T01:37:08;14.96;83.60
74923;HTU21D;64715;44.760;37.678;2023-05-23T01:38:18;14.99;83.43
74923;HTU21D;64715;44.760;37.678;2023-05-23T01:39:19;14.97;83.36
74923;HTU21D;64715;44.760;37.678;2023-05-23T01:40:21;15.01;83.51
74923;HTU21D;64715;44.760;37.678;2023-05-23T01:41:23;15.03;83.58
74923;HTU21D;64715;44.760;37.678;2023-05-23T01:42:25;15.04;83.49
74923;HTU21D;64715;44.760;37.678;2023-05-23T01:43:27;15.06;83.63
74923;HTU21D;64715;44.760;37.678;2023-05-23T01:44:29;15.08;83.65
74923;HTU21D;64715;44.760;37.678;2023-05-23T01:45:31;15.10;83.79
74923;HTU21D;64715;44.760;37.678;2023-05-23T01:46:33;15.12;83.61
74923;HTU21D;64715;44.760;37.678;2023-05-23T01:47:35;15.12;83.49
74923;HTU21D;64715;44.760;37.678;2023-05-23T01:48:37;15.15;83.64
74923;HTU21D;64715;44.760;37.678;2023-05-23T01:49:40;15.18;83.61
74923;HTU21D;64715;44.760;37.678;2023-05-23T01:50:43;15.21;83.69
74923;HTU21D;64715;44.760;37.678;2023-05-23T01:51:47;15.24;83.78
74923;HTU21D;64715;44.760;37.678;2023-05-23T01:52:48;15.26;83.90
74923;HTU21D;64715;44.760;37.678;2023-05-23T01:53:50;15.30;83.71
74923;HTU21D;64715;44.760;37.678;2023-05-23T01:54:52;15.32;83.74
74923;HTU21D;64715;44.760;37.678;2023-05-23T01:55:53;15.37;84.07
74923;HTU21D;64715;44.760;37.678;2023-05-23T01:56:56;15.42;84.02
74923;HTU21D;64715;44.760;37.678;2023-05-23T01:57:58;15.45;83.96
74923;HTU21D;64715;44.760;37.678;2023-05-23T01:58:59;15.52;83.97
74923;HTU21D;64715;44.760;37.678;2023-05-23T02:00:03;15.56;84.10
74923;HTU21D;64715;44.760;37.678;2023-05-23T02:01:14;15.61;84.13
74923;HTU21D;64715;44.760;37.678;2023-05-23T02:02:15;15.67;84.35
74923;HTU21D;64715;44.760;37.678;2023-05-23T02:03:17;15.72;84.39
74923;HTU21D;64715;44.760;37.678;2023-05-23T02:04:18;15.77;84.39
74923;HTU21D;64715;44.760;37.678;2023-05-23T02:05:19;15.83;84.23
74923;HTU21D;64715;44.760;37.678;2023-05-23T02:06:20;15.86;84.20
74923;HTU21D;64715;44.760;37.678;2023-05-23T02:07:21;15.89;84.43
74923;HTU21D;64715;44.760;37.678;2023-05-23T02:08:23;15.92;84.52
74923;HTU21D;64715;44.760;37.678;2023-05-23T02:09:24;15.97;84.55
74923;HTU21D;64715;44.760;37.678;2023-05-23T02:10:25;16.00;84.58
74923;HTU21D;64715;44.760;37.678;2023-05-23T02:11:26;16.04;84.60
74923;HTU21D;64715;44.760;37.678;2023-05-23T02:12:27;16.06;84.59
74923;HTU21D;64715;44.760;37.678;2023-05-23T02:13:28;16.11;84.66
74923;HTU21D;64715;44.760;37.678;2023-05-23T02:14:29;16.15;84.51
74923;HTU21D;64715;44.760;37.678;2023-05-23T02:15:30;16.17;84.51
74923;HTU21D;64715;44.760;37.678;2023-05-23T02:16:32;16.20;84.58
74923;HTU21D;64715;44.760;37.678;2023-05-23T02:17:36;16.20;84.56
74923;HTU21D;64715;44.760;37.678;2023-05-23T02:18:40;16.24;84.62
74923;HTU21D;64715;44.760;37.678;2023-05-23T02:19:40;16.26;84.57
74923;HTU21D;64715;44.760;37.678;2023-05-23T02:20:41;16.29;84.53
74923;HTU21D;64715;44.760;37.678;2023-05-23T02:21:43;16.33;84.60
74923;HTU21D;64715;44.760;37.678;2023-05-23T02:22:45;16.34;84.81
74923;HTU21D;64715;44.760;37.678;2023-05-23T02:23:46;16.39;84.67
74923;HTU21D;64715;44.760;37.678;2023-05-23T02:24:51;16.42;84.76
74923;HTU21D;64715;44.760;37.678;2023-05-23T02:25:52;16.46;84.75
74923;HTU21D;64715;44.760;37.678;2023-05-23T02:26:53;16.50;84.68
74923;HTU21D;64715;44.760;37.678;2023-05-23T02:27:54;16.52;84.78
74923;HTU21D;64715;44.760;37.678;2023-05-23T02:28:55;16.55;85.01
74923;HTU21D;64715;44.760;37.678;2023-05-23T02:29:56;16.57;84.97
74923;HTU21D;64715;44.760;37.678;2023-05-23T02:30:57;16.60;84.83
74923;HTU21D;64715;44.760;37.678;2023-05-23T02:31:58;16.62;84.84
74923;HTU21D;64715;44.760;37.678;2023-05-23T02:33:04;16.65;85.06
74923;HTU21D;64715;44.760;37.678;2023-05-23T02:34:06;16.67;84.87
74923;HTU21D;64715;44.760;37.678;2023-05-23T02:35:07;16.70;84.99
74923;HTU21D;64715;44.760;37.678;2023-05-23T02:36:08;16.70;84.97
74923;HTU21D;64715;44.760;37.678;2023-05-23T02:37:09;16.72;84.77
74923;HTU21D;64715;44.760;37.678;2023-05-23T02:38:11;16.75;84.93
74923;HTU21D;64715;44.760;37.678;2023-05-23T02:39:15;16.75;84.93
74923;HTU21D;64715;44.760;37.678;2023-05-23T02:40:16;16.76;84.79
74923;HTU21D;64715;44.760;37.678;2023-05-23T02:41:17;16.80;84.91
74923;HTU21D;64715;44.760;37.678;2023-05-23T02:42:18;16.80;84.84
74923;HTU21D;64715;44.760;37.678;2023-05-23T02:43:19;16.81;85.08
74923;HTU21D;64715;44.760;37.678;2023-05-23T02:44:20;16.85;85.00
74923;HTU21D;64715;44.760;37.678;2023-05-23T02:45:22;16.87;85.06
74923;HTU21D;64715;44.760;37.678;2023-05-23T02:46:23;16.88;85.03
74923;HTU21D;64715;44.760;37.678;2023-05-23T02:47:24;16.89;85.06
74923;HTU21D;64715;44.760;37.678;2023-05-23T02:48:25;16.91;85.00
74923;HTU21D;64715;44.760;37.678;2023-05-23T02:49:26;16.93;85.09
74923;HTU21D;64715;44.760;37.678;2023-05-23T02:50:27;16.95;85.20
74923;HTU21D;64715;44.760;37.678;2023-05-23T02:51:28;16.99;85.24
74923;HTU21D;64715;44.760;37.678;2023-05-23T02:52:31;17.01;85.04
74923;HTU21D;64715;44.760;37.678;2023-05-23T02:53:32;17.02;84.76
74923;HTU21D;64715;44.760;37.678;2023-05-23T02:54:33;17.04;84.83
74923;HTU21D;64715;44.760;37.678;2023-05-23T02:55:34;17.06;84.90
74923;HTU21D;64715;44.760;37.678;2023-05-23T02:56:36;17.07;84.88
74923;HTU21D;64715;44.760;37.678;2023-05-23T02:57:37;17.08;84.69
74923;HTU21D;64715;44.760;37.678;2023-05-23T02:58:38;17.10;84.99
74923;HTU21D;64715;44.760;37.678;2023-05-23T02:59:39;17.14;84.87
74923;HTU21D;64715;44.760;37.678;2023-05-23T03:00:40;17.15;84.69
74923;HTU21D;64715;44.760;37.678;2023-05-23T03:01:44;17.16;85.01
74923;HTU21D;64715;44.760;37.678;2023-05-23T03:02:45;17.18;84.67
74923;HTU21D;64715;44.760;37.678;2023-05-23T03:03:46;17.19;84.82
74923;HTU21D;64715;44.760;37.678;2023-05-23T03:04:47;17.20;84.73
74923;HTU21D;64715;44.760;37.678;2023-05-23T03:05:49;17.20;84.70
74923;HTU21D;64715;44.760;37.678;2023-05-23T03:06:51;17.23;84.77
74923;HTU21D;64715;44.760;37.678;2023-05-23T03:07:54;17.23;84.71
74923;HTU21D;64715;44.760;37.678;2023-05-23T03:08:55;17.25;84.70
74923;HTU21D;64715;44.760;37.678;2023-05-23T03:09:56;17.28;84.65
74923;HTU21D;64715;44.760;37.678;2023-05-23T03:10:58;17.29;84.64
74923;HTU21D;64715;44.760;37.678;2023-05-23T03:11:59;17.29;84.58
74923;HTU21D;64715;44.760;37.678;2023-05-23T03:13:00;17.31;84.55
74923;HTU21D;64715;44.760;37.678;2023-05-23T03:14:02;17.31;84.58
74923;HTU21D;64715;44.760;37.678;2023-05-23T03:15:04;17.34;84.56
74923;HTU21D;64715;44.760;37.678;2023-05-23T03:16:05;17.35;84.55
74923;HTU21D;64715;44.760;37.678;2023-05-23T03:17:06;17.36;84.52
74923;HTU21D;64715;44.760;37.678;2023-05-23T03:18:07;17.37;84.42
74923;HTU21D;64715;44.760;37.678;2023-05-23T03:19:08;17.38;84.36
74923;HTU21D;64715;44.760;37.678;2023-05-23T03:20:10;17.38;84.51
74923;HTU21D;64715;44.760;37.678;2023-05-23T03:21:12;17.39;84.51
74923;HTU21D;64715;44.760;37.678;2023-05-23T03:22:13;17.41;84.37
74923;HTU21D;64715;44.760;37.678;2023-05-23T03:23:16;17.44;84.51
74923;HTU21D;64715;44.760;37.678;2023-05-23T03:24:18;17.44;84.26
74923;HTU21D;64715;44.760;37.678;2023-05-23T03:25:19;17.44;84.42
74923;HTU21D;64715;44.760;37.678;2023-05-23T03:26:21;17.47;84.44
74923;HTU21D;64715;44.760;37.678;2023-05-23T03:27:24;17.47;84.29
74923;HTU21D;64715;44.760;37.678;2023-05-23T03:28:25;17.48;84.46
74923;HTU21D;64715;44.760;37.678;2023-05-23T03:29:26;17.50;84.20
74923;HTU21D;64715;44.760;37.678;2023-05-23T03:30:27;17.53;84.29
74923;HTU21D;64715;44.760;37.678;2023-05-23T03:31:28;17.52;84.40
74923;HTU21D;64715;44.760;37.678;2023-05-23T03:32:29;17.53;84.23
74923;HTU21D;64715;44.760;37.678;2023-05-23T03:33:31;17.55;84.29
74923;HTU21D;64715;44.760;37.678;2023-05-23T03:34:32;17.56;84.32
74923;HTU21D;64715;44.760;37.678;2023-05-23T03:35:34;17.58;84.26
74923;HTU21D;64715;44.760;37.678;2023-05-23T03:36:35;17.63;84.08
74923;HTU21D;64715;44.760;37.678;2023-05-23T03:37:39;17.62;84.11
74923;HTU21D;64715;44.760;37.678;2023-05-23T03:38:41;17.63;84.04
74923;HTU21D;64715;44.760;37.678;2023-05-23T03:39:42;17.65;84.28
74923;HTU21D;64715;44.760;37.678;2023-05-23T03:40:43;17.65;83.96
74923;HTU21D;64715;44.760;37.678;2023-05-23T03:41:45;17.67;83.97
74923;HTU21D;64715;44.760;37.678;2023-05-23T03:42:47;17.69;84.02
74923;HTU21D;64715;44.760;37.678;2023-05-23T03:43:49;17.68;84.07
74923;HTU21D;64715;44.760;37.678;2023-05-23T03:44:50;17.73;84.03
74923;HTU21D;64715;44.760;37.678;2023-05-23T03:45:51;17.74;83.82
74923;HTU21D;64715;44.760;37.678;2023-05-23T03:46:52;17.73;83.74
74923;HTU21D;64715;44.760;37.678;2023-05-23T03:47:53;17.76;83.71
74923;HTU21D;64715;44.760;37.678;2023-05-23T03:48:54;17.76;83.58
74923;HTU21D;64715;44.760;37.678;2023-05-23T03:49:56;17.78;83.55
74923;HTU21D;64715;44.760;37.678;2023-05-23T03:50:58;17.77;83.64
74923;HTU21D;64715;44.760;37.678;2023-05-23T03:51:59;17.79;83.59
74923;HTU21D;64715;44.760;37.678;2023-05-23T03:53:00;17.79;83.53
74923;HTU21D;64715;44.760;37.678;2023-05-23T03:54:02;17.80;83.54
74923;HTU21D;64715;44.760;37.678;2023-05-23T03:55:03;17.81;83.60
74923;HTU21D;64715;44.760;37.678;2023-05-23T03:56:04;17.82;83.52
74923;HTU21D;64715;44.760;37.678;2023-05-23T03:57:06;17.82;83.41
74923;HTU21D;64715;44.760;37.678;2023-05-23T03:58:08;17.83;83.73
74923;HTU21D;64715;44.760;37.678;2023-05-23T03:59:09;17.84;83.63
74923;HTU21D;64715;44.760;37.678;2023-05-23T04:00:10;17.84;83.52
74923;HTU21D;64715;44.760;37.678;2023-05-23T04:01:17;17.87;83.50
74923;HTU21D;64715;44.760;37.678;2023-05-23T04:02:20;17.90;83.54
74923;HTU21D;64715;44.760;37.678;2023-05-23T04:03:21;17.91;83.45
74923;HTU21D;64715;44.760;37.678;2023-05-23T04:04:23;17.93;83.52
74923;HTU21D;64715;44.760;37.678;2023-05-23T04:05:26;17.96;83.10
74923;HTU21D;64715;44.760;37.678;2023-05-23T04:06:27;17.96;83.20
74923;HTU21D;64715;44.760;37.678;2023-05-23T04:07:31;17.98;83.19
74923;HTU21D;64715;44.760;37.678;2023-05-23T04:08:34;17.98;83.23
74923;HTU21D;64715;44.760;37.678;2023-05-23T04:09:35;17.99;83.18
74923;HTU21D;64715;44.760;37.678;2023-05-23T04:10:38;18.02;83.26
74923;HTU21D;64715;44.760;37.678;2023-05-23T04:11:39;18.04;83.21
74923;HTU21D;64715;44.760;37.678;2023-05-23T04:12:41;18.03;83.20
74923;HTU21D;64715;44.760;37.678;2023-05-23T04:13:47;18.05;83.26
74923;HTU21D;64715;44.760;37.678;2023-05-23T04:14:48;18.04;83.09
74923;HTU21D;64715;44.760;37.678;2023-05-23T04:15:50;18.07;83.27
74923;HTU21D;64715;44.760;37.678;2023-05-23T04:16:53;18.08;83.26
74923;HTU21D;64715;44.760;37.678;2023-05-23T04:17:55;18.10;83.31
74923;HTU21D;64715;44.760;37.678;2023-05-23T04:18:57;18.12;83.16
74923;HTU21D;64715;44.760;37.678;2023-05-23T04:19:59;18.17;83.31
74923;HTU21D;64715;44.760;37.678;2023-05-23T04:21:00;18.19;83.29
74923;HTU21D;64715;44.760;37.678;2023-05-23T04:22:02;18.24;83.27
74923;HTU21D;64715;44.760;37.678;2023-05-23T04:23:03;18.26;83.19
74923;HTU21D;64715;44.760;37.678;2023-05-23T04:24:06;18.30;83.30
74923;HTU21D;64715;44.760;37.678;2023-05-23T04:25:08;18.35;83.20
74923;HTU21D;64715;44.760;37.678;2023-05-23T04:26:15;18.37;83.24
74923;HTU21D;64715;44.760;37.678;2023-05-23T04:27:22;18.39;83.00
74923;HTU21D;64715;44.760;37.678;2023-05-23T04:28:26;18.41;83.04
74923;HTU21D;64715;44.760;37.678;2023-05-23T04:29:29;18.43;82.79
74923;HTU21D;64715;44.760;37.678;2023-05-23T04:30:31;18.43;82.71
74923;HTU21D;64715;44.760;37.678;2023-05-23T04:31:33;18.43;82.74
74923;HTU21D;64715;44.760;37.678;2023-05-23T04:32:35;18.44;82.68
74923;HTU21D;64715;44.760;37.678;2023-05-23T04:33:38;18.46;82.65
74923;HTU21D;64715;44.760;37.678;2023-05-23T04:34:39;18.46;82.42
74923;HTU21D;64715;44.760;37.678;2023-05-23T04:35:41;18.47;82.54
74923;HTU21D;64715;44.760;37.678;2023-05-23T04:36:44;18.51;82.42
74923;HTU21D;64715;44.760;37.678;2023-05-23T04:37:45;18.50;82.36
74923;HTU21D;64715;44.760;37.678;2023-05-23T04:38:47;18.51;82.37
74923;HTU21D;64715;44.760;37.678;2023-05-23T04:39:48;18.53;82.30
74923;HTU21D;64715;44.760;37.678;2023-05-23T04:40:58;18.55;82.45
74923;HTU21D;64715;44.760;37.678;2023-05-23T04:42:18;18.57;82.13
74923;HTU21D;64715;44.760;37.678;2023-05-23T04:43:33;18.58;82.12
74923;HTU21D;64715;44.760;37.678;2023-05-23T04:44:59;18.58;81.82
74923;HTU21D;64715;44.760;37.678;2023-05-23T04:46:37;18.58;81.93
74923;HTU21D;64715;44.760;37.678;2023-05-23T04:47:46;18.57;81.80
74923;HTU21D;64715;44.760;37.678;2023-05-23T04:49:02;18.56;81.63
74923;HTU21D;64715;44.760;37.678;2023-05-23T04:50:03;18.52;81.95
74923;HTU21D;64715;44.760;37.678;2023-05-23T04:51:05;18.50;81.63
74923;HTU21D;64715;44.760;37.678;2023-05-23T04:52:09;18.50;81.66
74923;HTU21D;64715;44.760;37.678;2023-05-23T04:53:14;18.51;81.64
74923;HTU21D;64715;44.760;37.678;2023-05-23T04:54:15;18.50;81.57
74923;HTU21D;64715;44.760;37.678;2023-05-23T04:55:16;18.51;81.59
74923;HTU21D;64715;44.760;37.678;2023-05-23T04:56:18;18.50;81.62
74923;HTU21D;64715;44.760;37.678;2023-05-23T04:57:21;18.50;81.62
74923;HTU21D;64715;44.760;37.678;2023-05-23T04:58:22;18.49;81.45
74923;HTU21D;64715;44.760;37.678;2023-05-23T04:59:27;18.50;81.46
74923;HTU21D;64715;44.760;37.678;2023-05-23T05:00:29;18.50;81.51
74923;HTU21D;64715;44.760;37.678;2023-05-23T05:01:30;18.49;81.40
74923;HTU21D;64715;44.760;37.678;2023-05-23T05:02:31;18.50;81.30
74923;HTU21D;64715;44.760;37.678;2023-05-23T05:03:35;18.50;81.30
74923;HTU21D;64715;44.760;37.678;2023-05-23T05:04:37;18.50;81.26
74923;HTU21D;64715;44.760;37.678;2023-05-23T05:05:38;18.51;81.40
74923;HTU21D;64715;44.760;37.678;2023-05-23T05:06:40;18.50;81.39
74923;HTU21D;64715;44.760;37.678;2023-05-23T05:07:43;18.51;81.37
74923;HTU21D;64715;44.760;37.678;2023-05-23T05:08:44;18.54;81.23
74923;HTU21D;64715;44.760;37.678;2023-05-23T05:09:45;18.52;81.31
74923;HTU21D;64715;44.760;37.678;2023-05-23T05:10:46;18.54;81.20
74923;HTU21D;64715;44.760;37.678;2023-05-23T05:11:49;18.55;81.23
74923;HTU21D;64715;44.760;37.678;2023-05-23T05:12:50;18.56;81.28
74923;HTU21D;64715;44.760;37.678;2023-05-23T05:13:51;18.58;81.10
74923;HTU21D;64715;44.760;37.678;2023-05-23T05:14:53;18.58;81.09
74923;HTU21D;64715;44.760;37.678;2023-05-23T05:15:54;18.57;81.11
74923;HTU21D;64715;44.760;37.678;2023-05-23T05:16:56;18.62;81.11
74923;HTU21D;64715;44.760;37.678;2023-05-23T05:18:01;18.64;81.23
74923;HTU21D;64715;44.760;37.678;2023-05-23T05:19:04;18.65;81.10
74923;HTU21D;64715;44.760;37.678;2023-05-23T05:20:06;18.69;80.86
74923;HTU21D;64715;44.760;37.678;2023-05-23T05:21:09;18.72;81.02
74923;HTU21D;64715;44.760;37.678;2023-05-23T05:22:11;18.76;80.88
74923;HTU21D;64715;44.760;37.678;2023-05-23T05:23:12;18.79;80.99
74923;HTU21D;64715;44.760;37.678;2023-05-23T05:24:13;18.81;80.86
74923;HTU21D;64715;44.760;37.678;2023-05-23T05:25:16;18.84;80.69
74923;HTU21D;64715;44.760;37.678;2023-05-23T05:26:17;18.85;80.68
74923;HTU21D;64715;44.760;37.678;2023-05-23T05:27:18;18.88;80.62
74923;HTU21D;64715;44.760;37.678;2023-05-23T05:28:19;18.88;80.58
74923;HTU21D;64715;44.760;37.678;2023-05-23T05:29:24;18.93;80.61
74923;HTU21D;64715;44.760;37.678;2023-05-23T05:30:26;18.94;80.54
74923;HTU21D;64715;44.760;37.678;2023-05-23T05:31:31;18.98;80.54
74923;HTU21D;64715;44.760;37.678;2023-05-23T05:32:32;19.00;80.29
74923;HTU21D;64715;44.760;37.678;2023-05-23T05:33:34;19.03;80.53
74923;HTU21D;64715;44.760;37.678;2023-05-23T05:34:41;19.08;80.53
74923;HTU21D;64715;44.760;37.678;2023-05-23T05:35:43;19.12;80.17
74923;HTU21D;64715;44.760;37.678;2023-05-23T05:36:44;19.15;80.24
74923;HTU21D;64715;44.760;37.678;2023-05-23T05:37:48;19.18;80.14
74923;HTU21D;64715;44.760;37.678;2023-05-23T05:38:49;19.24;79.85
74923;HTU21D;64715;44.760;37.678;2023-05-23T05:39:54;19.26;79.84
74923;HTU21D;64715;44.760;37.678;2023-05-23T05:40:55;19.29;79.79
74923;HTU21D;64715;44.760;37.678;2023-05-23T05:41:57;19.33;79.68
74923;HTU21D;64715;44.760;37.678;2023-05-23T05:42:59;19.33;79.72
74923;HTU21D;64715;44.760;37.678;2023-05-23T05:44:00;19.36;79.51
74923;HTU21D;64715;44.760;37.678;2023-05-23T05:45:01;19.36;79.40
74923;HTU21D;64715;44.760;37.678;2023-05-23T05:46:04;19.36;79.17
74923;HTU21D;64715;44.760;37.678;2023-05-23T05:47:05;19.33;79.18
74923;HTU21D;64715;44.760;37.678;2023-05-23T05:48:06;19.30;79.20
74923;HTU21D;64715;44.760;37.678;2023-05-23T05:49:08;19.29;79.21
74923;HTU21D;64715;44.760;37.678;2023-05-23T05:50:11;19.28;79.01
74923;HTU21D;64715;44.760;37.678;2023-05-23T05:51:12;19.26;79.01
74923;HTU21D;64715;44.760;37.678;2023-05-23T05:52:15;19.24;78.83
74923;HTU21D;64715;44.760;37.678;2023-05-23T05:53:15;19.24;78.80
74923;HTU21D;64715;44.760;37.678;2023-05-23T05:54:16;19.22;78.92
74923;HTU21D;64715;44.760;37.678;2023-05-23T05:55:17;19.21;78.98
74923;HTU21D;64715;44.760;37.678;2023-05-23T05:56:22;19.18;78.69
74923;HTU21D;64715;44.760;37.678;2023-05-23T05:57:23;19.17;78.65
74923;HTU21D;64715;44.760;37.678;2023-05-23T05:58:24;19.13;78.67
74923;HTU21D;64715;44.760;37.678;2023-05-23T05:59:32;19.15;78.81
74923;HTU21D;64715;44.760;37.678;2023-05-23T06:00:33;19.12;78.74
74923;HTU21D;64715;44.760;37.678;2023-05-23T06:01:41;19.11;78.73
74923;HTU21D;64715;44.760;37.678;2023-05-23T06:02:45;19.10;78.82
74923;HTU21D;64715;44.760;37.678;2023-05-23T06:04:11;19.08;78.95
74923;HTU21D;64715;44.760;37.678;2023-05-23T06:05:14;19.06;78.95
74923;HTU21D;64715;44.760;37.678;2023-05-23T06:06:16;19.05;78.95
74923;HTU21D;64715;44.760;37.678;2023-05-23T06:07:17;19.03;79.04
74923;HTU21D;64715;44.760;37.678;2023-05-23T06:08:19;19.05;79.21
74923;HTU21D;64715;44.760;37.678;2023-05-23T06:09:20;19.03;79.21
74923;HTU21D;64715;44.760;37.678;2023-05-23T06:10:21;19.05;79.29
74923;HTU21D;64715;44.760;37.678;2023-05-23T06:11:25;19.05;79.53
74923;HTU21D;64715;44.760;37.678;2023-05-23T06:12:51;19.02;79.38
74923;HTU21D;64715;44.760;37.678;2023-05-23T06:13:52;19.06;79.58
74923;HTU21D;64715;44.760;37.678;2023-05-23T06:21:03;19.08;79.10
74923;HTU21D;64715;44.760;37.678;2023-05-23T06:22:06;19.09;79.38
74923;HTU21D;64715;44.760;37.678;2023-05-23T06:23:07;19.11;79.31
74923;HTU21D;64715;44.760;37.678;2023-05-23T07:21:37;17.95;80.14
74923;HTU21D;64715;44.760;37.678;2023-05-23T07:25:34;17.99;80.33
74923;HTU21D;64715;44.760;37.678;2023-05-23T07:28:46;18.07;80.63
74923;HTU21D;64715;44.760;37.678;2023-05-23T07:32:40;18.32;80.62
74923;HTU21D;64715;44.760;37.678;2023-05-23T07:33:43;18.38;80.73
74923;HTU21D;64715;44.760;37.678;2023-05-23T07:34:47;18.46;80.65
74923;HTU21D;64715;44.760;37.678;2023-05-23T07:35:49;18.52;80.75
74923;HTU21D;64715;44.760;37.678;2023-05-23T07:36:50;18.61;80.83
74923;HTU21D;64715;44.760;37.678;2023-05-23T07:37:53;18.65;80.95
74923;HTU21D;64715;44.760;37.678;2023-05-23T07:38:54;18.71;80.77
74923;HTU21D;64715;44.760;37.678;2023-05-23T07:39:55;18.80;80.97